Time;durP1;ratioP1;P1;durP2;ratioP2;P2;SDS_P1;SDS_P2;PMS_P1;PMS_P2;Temp;Humidity;BMP_temperature;BMP_pressure;BME280_temperature;BME280_humidity;BME280_pressure;Samples;Min_cycle;Max_cycle;Signal;HPM_P1;HPM_P2
2022/10/29 00:00:31;;;;;;;14.00;5.10;;;15.60;94.90;;;;;;5031944;28;20536;-53
2022/10/29 00:02:59;;;;;;;11.93;5.43;;;15.60;96.00;;;;;;5033370;28;20443;-53
2022/10/29 00:05:25;;;;;;;22.10;5.63;;;15.60;94.90;;;;;;5032934;28;20482;-53
2022/10/29 00:07:52;;;;;;;14.03;5.30;;;15.60;95.30;;;;;;5032724;28;20497;-54
2022/10/29 00:10:18;;;;;;;16.83;5.17;;;15.50;92.40;;;;;;5031950;28;20517;-54
2022/10/29 00:12:45;;;;;;;9.43;4.80;;;15.50;88.80;;;;;;5032685;28;20508;-54
2022/10/29 00:15:11;;;;;;;15.57;5.07;;;15.50;84.60;;;;;;5030677;28;20482;-53
2022/10/29 00:17:38;;;;;;;15.97;4.80;;;15.60;87.60;;;;;;5032611;28;20459;-53
2022/10/29 00:20:08;;;;;;;17.50;4.60;;;15.60;89.50;;;;;;5031698;28;20458;-54
2022/10/29 00:22:34;;;;;;;14.27;4.67;;;15.60;88.70;;;;;;5027170;28;21061;-54
2022/10/29 00:25:01;;;;;;;9.80;4.43;;;15.70;89.30;;;;;;5030216;28;20462;-53
2022/10/29 00:27:27;;;;;;;14.80;5.00;;;15.70;91.30;;;;;;5031767;28;20526;-54
2022/10/29 00:29:54;;;;;;;22.67;5.47;;;15.70;91.20;;;;;;5031535;28;21022;-53
2022/10/29 00:32:21;;;;;;;14.53;4.73;;;15.70;92.10;;;;;;5030384;28;20971;-53
2022/10/29 00:34:48;;;;;;;14.60;4.33;;;15.70;88.70;;;;;;5033684;28;20497;-53
2022/10/29 00:37:16;;;;;;;12.63;4.83;;;15.70;87.80;;;;;;5032468;28;21300;-54
2022/10/29 00:39:42;;;;;;;18.23;6.40;;;15.70;87.50;;;;;;5032968;28;21013;-53
2022/10/29 00:42:14;;;;;;;18.87;5.60;;;15.80;87.50;;;;;;5031764;28;20856;-53
2022/10/29 00:44:41;;;;;;;23.73;6.33;;;15.70;87.30;;;;;;5024333;28;20517;-53
2022/10/29 00:47:19;;;;;;;15.40;5.30;;;15.70;83.60;;;;;;5032815;28;20972;-54
2022/10/29 00:49:49;;;;;;;26.87;7.23;;;15.60;81.70;;;;;;5032915;28;20439;-53
2022/10/29 00:52:19;;;;;;;14.03;5.77;;;15.60;77.40;;;;;;5031584;28;20463;-53
2022/10/29 00:54:47;;;;;;;17.40;6.00;;;15.60;75.30;;;;;;5032777;28;20895;-54
2022/10/29 00:57:19;;;;;;;20.13;6.43;;;15.60;67.90;;;;;;5031927;28;20817;-53
2022/10/29 00:59:48;;;;;;;20.63;5.40;;;15.70;70.30;;;;;;5032578;28;20443;-53
2022/10/29 01:02:15;;;;;;;12.47;5.40;;;15.80;67.90;;;;;;5030453;28;20595;-53
2022/10/29 01:04:43;;;;;;;16.37;5.80;;;15.70;70.80;;;;;;5031525;28;20517;-54
2022/10/29 01:07:10;;;;;;;23.13;6.03;;;15.60;68.80;;;;;;5031636;28;20523;-53
2022/10/29 01:09:39;;;;;;;12.20;5.67;;;15.60;64.50;;;;;;5028984;28;20487;-53
2022/10/29 01:12:20;;;;;;;12.23;5.17;;;15.50;62.70;;;;;;5032150;28;20443;-53
2022/10/29 01:14:57;;;;;;;13.43;5.90;;;15.50;61.30;;;;;;5029035;28;20512;-53
2022/10/29 01:17:32;;;;;;;23.53;5.57;;;15.50;60.00;;;;;;5032778;28;20500;-54
2022/10/29 01:20:40;;;;;;;13.27;5.33;;;15.40;59.40;;;;;;5028548;28;20970;-54
2022/10/29 01:23:21;;;;;;;20.80;5.60;;;15.30;53.90;;;;;;5029807;28;20442;-53
2022/10/29 01:26:18;;;;;;;18.23;6.17;;;15.30;50.80;;;;;;5031766;28;20466;-53
2022/10/29 01:29:03;;;;;;;17.27;5.77;;;15.30;48.40;;;;;;5021623;28;20877;-54
2022/10/29 01:31:35;;;;;;;16.83;6.27;;;15.30;48.50;;;;;;5025004;28;20529;-53
2022/10/29 01:34:05;;;;;;;13.73;5.20;;;15.20;47.90;;;;;;5029114;28;20509;-54
2022/10/29 01:36:40;;;;;;;13.77;5.90;;;15.20;43.10;;;;;;5030701;28;20482;-53
2022/10/29 01:39:14;;;;;;;11.90;5.23;;;15.20;42.10;;;;;;5031426;28;21543;-53
2022/10/29 01:41:49;;;;;;;17.10;5.80;;;15.10;44.00;;;;;;5030466;28;20536;-54
2022/10/29 01:44:27;;;;;;;16.47;5.67;;;15.00;41.30;;;;;;5029550;28;20470;-53
2022/10/29 01:46:57;;;;;;;17.30;6.20;;;14.90;38.90;;;;;;5030305;28;20532;-54
2022/10/29 01:49:28;;;;;;;18.67;5.87;;;14.90;32.20;;;;;;5027969;28;20458;-54
2022/10/29 01:51:56;;;;;;;13.50;4.80;;;14.80;29.00;;;;;;5027873;28;20466;-53
2022/10/29 01:54:23;;;;;;;19.67;6.03;;;14.80;26.80;;;;;;5030985;28;20474;-54
2022/10/29 01:56:54;;;;;;;13.70;5.53;;;14.70;24.80;;;;;;5028113;28;20502;-53
2022/10/29 01:59:21;;;;;;;18.53;5.37;;;14.70;24.20;;;;;;5029178;28;20493;-54
2022/10/29 02:01:56;;;;;;;22.73;5.10;;;14.70;76.40;;;;;;5030156;28;20996;-53
2022/10/29 02:04:45;;;;;;;15.10;6.00;;;14.70;85.50;;;;;;5027950;28;20458;-53
2022/10/29 02:07:20;;;;;;;13.87;5.73;;;14.60;99.90;;;;;;5023615;28;20520;-54
2022/10/29 02:09:54;;;;;;;13.17;5.80;;;14.60;99.90;;;;;;5030525;28;20462;-53
2022/10/29 02:12:26;;;;;;;23.53;4.83;;;14.50;99.90;;;;;;5029728;28;20504;-54
2022/10/29 02:14:58;;;;;;;18.67;5.60;;;14.50;99.90;;;;;;5030102;28;20462;-55
2022/10/29 02:17:24;;;;;;;26.43;5.93;;;14.50;99.90;;;;;;5029378;28;20467;-54
2022/10/29 02:19:52;;;;;;;15.23;6.53;;;14.50;99.90;;;;;;5030335;28;20458;-54
2022/10/29 02:22:19;;;;;;;23.27;6.87;;;14.40;99.90;;;;;;5030339;28;20483;-54
2022/10/29 02:24:45;;;;;;;12.67;5.60;;;14.30;99.90;;;;;;5028508;28;20516;-53
2022/10/29 02:27:12;;;;;;;18.20;6.03;;;14.30;99.90;;;;;;5028950;28;21619;-54
2022/10/29 02:29:39;;;;;;;18.20;5.27;;;14.30;99.90;;;;;;5028669;28;20522;-53
2022/10/29 02:32:06;;;;;;;23.17;6.17;;;14.30;99.90;;;;;;5030465;28;20501;-54
2022/10/29 02:34:32;;;;;;;13.70;6.60;;;14.30;99.90;;;;;;5028111;28;20512;-53
2022/10/29 02:37:00;;;;;;;16.77;6.80;;;14.30;99.90;;;;;;5019259;28;20483;-54
2022/10/29 02:39:27;;;;;;;25.37;7.17;;;14.30;99.90;;;;;;5022588;28;20466;-53
2022/10/29 02:41:53;;;;;;;22.70;6.33;;;14.30;99.90;;;;;;5026568;28;20510;-53
2022/10/29 02:44:20;;;;;;;16.17;5.67;;;14.30;99.90;;;;;;5027579;28;20544;-54
2022/10/29 02:46:46;;;;;;;11.30;5.90;;;14.40;99.90;;;;;;5026984;28;20559;-53
2022/10/29 02:49:13;;;;;;;14.00;6.87;;;14.40;99.90;;;;;;5032876;28;20490;-54
2022/10/29 02:51:39;;;;;;;18.67;7.00;;;14.40;99.90;;;;;;5032934;28;20490;-54
2022/10/29 02:54:07;;;;;;;13.27;6.43;;;14.50;99.90;;;;;;5033410;28;20458;-53
2022/10/29 02:56:34;;;;;;;9.43;6.10;;;14.50;99.90;;;;;;5029637;23;20553;-53
2022/10/29 02:59:00;;;;;;;20.13;7.37;;;14.50;99.90;;;;;;5013146;28;20498;-53
2022/10/29 03:01:27;;;;;;;22.23;6.00;;;14.50;99.90;;;;;;5012645;28;20479;-53
2022/10/29 03:03:53;;;;;;;9.03;5.90;;;14.40;99.90;;;;;;5012139;28;20472;-53
2022/10/29 03:06:20;;;;;;;14.43;6.00;;;14.50;99.90;;;;;;5013573;28;20526;-53
2022/10/29 03:08:47;;;;;;;16.90;6.70;;;14.50;99.90;;;;;;5003668;28;20529;-53
2022/10/29 03:11:16;;;;;;;18.73;6.57;;;14.50;99.90;;;;;;5013734;28;20494;-53
2022/10/29 03:13:42;;;;;;;13.73;6.50;;;14.50;99.90;;;;;;5012007;28;20533;-53
2022/10/29 03:16:09;;;;;;;17.53;7.30;;;14.60;99.90;;;;;;5012471;28;20506;-52
2022/10/29 03:18:36;;;;;;;12.30;6.13;;;14.50;99.90;;;;;;5010243;28;20503;-53
2022/10/29 03:21:03;;;;;;;18.10;5.97;;;14.60;99.90;;;;;;5013227;28;20460;-55
2022/10/29 03:23:29;;;;;;;16.90;6.77;;;14.60;99.90;;;;;;5001622;28;20573;-54
2022/10/29 03:25:56;;;;;;;14.37;6.57;;;14.60;99.90;;;;;;5012863;28;20585;-52
2022/10/29 03:28:26;;;;;;;19.43;6.77;;;14.60;99.90;;;;;;5013408;28;20498;-53
2022/10/29 03:30:53;;;;;;;16.53;7.10;;;14.50;99.90;;;;;;5012236;28;20468;-54
2022/10/29 03:33:19;;;;;;;18.83;6.20;;;14.50;99.90;;;;;;5008896;28;21051;-52
2022/10/29 03:35:46;;;;;;;12.67;6.80;;;14.50;99.90;;;;;;5010229;28;20484;-55
2022/10/29 03:38:13;;;;;;;21.80;7.30;;;14.40;99.90;;;;;;5012204;28;20502;-52
2022/10/29 03:40:39;;;;;;;14.93;6.27;;;14.40;99.90;;;;;;5012551;28;20488;-52
2022/10/29 03:43:06;;;;;;;10.57;5.97;;;14.40;99.90;;;;;;5007239;28;20561;-53
2022/10/29 03:45:33;;;;;;;18.90;7.30;;;14.40;99.90;;;;;;5011475;28;20549;-51
2022/10/29 03:48:00;;;;;;;9.40;5.03;;;14.40;99.90;;;;;;5012454;28;20491;-53
2022/10/29 03:50:27;;;;;;;14.83;6.93;;;14.30;99.90;;;;;;5013111;28;20496;-52
2022/10/29 03:52:53;;;;;;;16.07;6.90;;;14.20;99.90;;;;;;5012034;28;20488;-51
2022/10/29 03:55:20;;;;;;;15.20;6.70;;;14.20;99.90;;;;;;5011711;28;20500;-52
2022/10/29 03:57:46;;;;;;;12.30;5.90;;;14.20;99.90;;;;;;5010535;28;20519;-53
2022/10/29 04:00:14;;;;;;;16.37;6.93;;;14.20;99.90;;;;;;5012434;28;20502;-53
2022/10/29 04:02:42;;;;;;;23.00;7.47;;;14.10;99.90;;;;;;5011523;28;20515;-52
2022/10/29 04:05:09;;;;;;;23.00;6.90;;;14.10;99.90;;;;;;5009050;28;20503;-52
2022/10/29 04:07:35;;;;;;;15.57;6.37;;;14.10;99.90;;;;;;5012592;28;20518;-52
2022/10/29 04:10:02;;;;;;;20.00;6.90;;;14.10;99.90;;;;;;5012031;28;20495;-52
2022/10/29 04:12:28;;;;;;;13.40;6.23;;;14.10;99.90;;;;;;5011441;28;20550;-52
2022/10/29 04:14:55;;;;;;;8.83;5.93;;;14.00;99.90;;;;;;5010485;28;20459;-53
2022/10/29 04:17:21;;;;;;;17.63;6.80;;;14.00;99.90;;;;;;5012060;28;20565;-52
2022/10/29 04:19:49;;;;;;;20.80;6.87;;;13.90;99.90;;;;;;5012377;28;20545;-53
2022/10/29 04:22:16;;;;;;;18.43;5.63;;;13.90;99.90;;;;;;5009399;28;20518;-54
2022/10/29 04:24:42;;;;;;;18.90;6.80;;;13.80;99.90;;;;;;5008326;28;20487;-53
2022/10/29 04:27:09;;;;;;;19.00;6.37;;;13.80;99.90;;;;;;5005891;28;20512;-52
2022/10/29 04:29:35;;;;;;;18.57;6.50;;;13.70;99.90;;;;;;5011837;28;20495;-52
2022/10/29 04:32:02;;;;;;;31.50;6.03;;;13.70;99.90;;;;;;5010605;28;20465;-53
2022/10/29 04:34:28;;;;;;;20.70;7.20;;;13.70;99.90;;;;;;5011313;28;20487;-54
2022/10/29 04:36:56;;;;;;;14.27;6.27;;;13.70;99.90;;;;;;5010585;28;20483;-54
2022/10/29 04:39:23;;;;;;;14.97;6.20;;;13.60;99.90;;;;;;5013609;28;20460;-54
2022/10/29 04:41:50;;;;;;;12.07;5.30;;;13.60;99.90;;;;;;5011577;28;20447;-52
2022/10/29 04:44:16;;;;;;;16.30;5.30;;;13.50;99.90;;;;;;5007372;28;20495;-51
2022/10/29 04:46:43;;;;;;;8.83;6.23;;;13.40;99.90;;;;;;5010004;28;20541;-53
2022/10/29 04:49:09;;;;;;;12.00;5.60;;;13.30;99.90;;;;;;5011933;28;20475;-52
2022/10/29 04:51:36;;;;;;;10.30;5.30;;;13.30;99.90;;;;;;5011788;28;20561;-52
2022/10/29 04:54:04;;;;;;;18.30;5.83;;;13.20;99.90;;;;;;5010139;28;20546;-53
2022/10/29 04:56:31;;;;;;;17.13;7.00;;;13.20;99.90;;;;;;5008782;28;20977;-53
2022/10/29 04:58:57;;;;;;;10.03;5.10;;;13.20;99.90;;;;;;5010332;28;20483;-52
2022/10/29 05:01:24;;;;;;;19.33;6.17;;;13.20;99.90;;;;;;5006627;28;20490;-53
2022/10/29 05:03:51;;;;;;;17.70;6.90;;;13.20;99.90;;;;;;5009620;28;21037;-53
2022/10/29 05:06:17;;;;;;;9.23;6.47;;;13.10;99.90;;;;;;5009905;28;20479;-53
2022/10/29 05:08:44;;;;;;;12.73;6.63;;;13.20;99.90;;;;;;5011343;28;20464;-53
2022/10/29 05:11:12;;;;;;;13.13;6.40;;;13.10;99.90;;;;;;5012217;28;20526;-52
2022/10/29 05:13:38;;;;;;;14.00;7.70;;;13.10;99.90;;;;;;5010457;28;20463;-53
2022/10/29 05:16:06;;;;;;;18.67;7.67;;;13.10;99.90;;;;;;5009786;28;20511;-53
2022/10/29 05:18:32;;;;;;;13.03;5.93;;;13.10;99.90;;;;;;5010826;28;20534;-53
2022/10/29 05:20:59;;;;;;;17.67;6.23;;;13.00;99.90;;;;;;5011244;28;20530;-54
2022/10/29 05:23:25;;;;;;;15.77;6.77;;;13.10;99.90;;;;;;5014943;28;20523;-54
2022/10/29 05:25:54;;;;;;;9.33;5.93;;;13.00;99.90;;;;;;5010149;28;20630;-52
2022/10/29 05:28:23;;;;;;;10.60;6.20;;;13.00;99.90;;;;;;5009332;28;21039;-53
2022/10/29 05:30:52;;;;;;;11.47;6.17;;;13.00;99.90;;;;;;5010016;28;21196;-52
2022/10/29 05:33:22;;;;;;;10.90;7.13;;;13.10;99.90;;;;;;5009443;28;20487;-54
2022/10/29 05:35:49;;;;;;;14.37;7.50;;;13.10;99.90;;;;;;5002114;28;20512;-54
2022/10/29 05:38:16;;;;;;;11.97;6.53;;;13.00;99.90;;;;;;5010114;28;20897;-52
2022/10/29 05:40:43;;;;;;;18.70;7.90;;;13.00;99.90;;;;;;4992446;28;20440;-52
2022/10/29 05:43:10;;;;;;;13.40;6.67;;;13.10;99.90;;;;;;5000599;28;20574;-51
2022/10/29 05:45:38;;;;;;;12.50;7.00;;;13.10;99.90;;;;;;5010634;28;20491;-55
2022/10/29 05:48:05;;;;;;;17.87;6.60;;;13.10;99.90;;;;;;5011117;28;20467;-53
2022/10/29 05:50:33;;;;;;;15.67;7.20;;;13.00;99.90;;;;;;5011361;28;20499;-52
2022/10/29 05:53:01;;;;;;;12.50;6.60;;;13.10;99.90;;;;;;5009900;28;20960;-53
2022/10/29 05:55:29;;;;;;;17.57;7.33;;;13.10;99.90;;;;;;5008925;28;20488;-52
2022/10/29 05:57:56;;;;;;;14.17;6.33;;;13.00;99.90;;;;;;5009965;28;20827;-53
2022/10/29 06:00:23;;;;;;;11.13;6.30;;;12.90;99.90;;;;;;5011312;28;20455;-54
2022/10/29 06:02:51;;;;;;;11.83;6.30;;;12.80;99.90;;;;;;5007210;28;20954;-54
2022/10/29 06:05:17;;;;;;;11.93;6.03;;;12.80;99.90;;;;;;5011334;28;20483;-52
2022/10/29 06:07:44;;;;;;;13.90;6.27;;;12.70;99.90;;;;;;5011828;28;20506;-52
2022/10/29 06:10:11;;;;;;;17.73;6.90;;;12.70;99.90;;;;;;5011895;28;20509;-52
2022/10/29 06:12:37;;;;;;;16.20;7.60;;;12.60;99.90;;;;;;5009026;28;20495;-52
2022/10/29 06:15:05;;;;;;;11.53;6.90;;;12.60;99.90;;;;;;5004420;28;20484;-53
2022/10/29 06:17:32;;;;;;;11.50;7.13;;;12.60;99.90;;;;;;4995732;28;20479;-53
2022/10/29 06:20:00;;;;;;;20.33;6.83;;;12.50;99.90;;;;;;5008040;28;20526;-54
2022/10/29 06:22:26;;;;;;;15.60;6.97;;;12.50;99.90;;;;;;5011868;28;20525;-51
2022/10/29 06:24:53;;;;;;;29.23;8.03;;;12.50;99.90;;;;;;5012029;28;20502;-53
2022/10/29 06:27:19;;;;;;;11.20;6.30;;;12.50;99.00;;;;;;5012281;28;20530;-53
2022/10/29 06:29:46;;;;;;;12.97;7.20;;;12.50;96.50;;;;;;5012609;28;20997;-52
2022/10/29 06:32:12;;;;;;;18.13;6.50;;;12.60;94.70;;;;;;5011250;28;20822;-52
2022/10/29 06:34:39;;;;;;;17.93;8.47;;;12.50;94.10;;;;;;5012966;28;20958;-53
2022/10/29 06:37:07;;;;;;;18.03;7.90;;;12.50;92.50;;;;;;5011446;28;21437;-53
2022/10/29 06:39:33;;;;;;;11.80;7.80;;;12.60;87.80;;;;;;5014080;28;20495;-52
2022/10/29 06:42:00;;;;;;;12.90;7.20;;;12.60;87.80;;;;;;5011872;28;20483;-52
2022/10/29 06:44:26;;;;;;;14.63;7.10;;;12.60;89.80;;;;;;5007373;28;20518;-51
2022/10/29 06:46:53;;;;;;;22.37;8.33;;;12.60;89.60;;;;;;5012303;28;20538;-52
2022/10/29 06:49:20;;;;;;;21.73;8.70;;;12.60;86.70;;;;;;5014190;28;20887;-52
2022/10/29 06:51:46;;;;;;;19.77;7.50;;;12.70;84.50;;;;;;5012932;28;20498;-52
2022/10/29 06:54:14;;;;;;;30.20;8.40;;;12.80;81.30;;;;;;5012417;28;20498;-51
2022/10/29 06:56:41;;;;;;;14.93;7.43;;;12.90;77.70;;;;;;5008390;28;20499;-52
2022/10/29 06:59:08;;;;;;;17.47;8.30;;;13.00;75.20;;;;;;5011365;28;20811;-53
2022/10/29 07:01:34;;;;;;;26.60;8.37;;;13.10;73.20;;;;;;5013516;28;20556;-52
2022/10/29 07:04:01;;;;;;;19.53;8.93;;;13.20;71.70;;;;;;5011791;28;20483;-52
2022/10/29 07:06:31;;;;;;;19.37;8.97;;;13.30;66.90;;;;;;5013137;28;20522;-53
2022/10/29 07:08:57;;;;;;;18.87;8.83;;;13.50;63.00;;;;;;5008894;28;20992;-53
2022/10/29 07:11:25;;;;;;;13.40;7.63;;;13.60;61.40;;;;;;5011579;28;20506;-54
2022/10/29 07:13:52;;;;;;;26.93;9.40;;;13.80;58.80;;;;;;5011213;28;20491;-52
2022/10/29 07:16:18;;;;;;;24.17;8.70;;;13.90;58.20;;;;;;5013214;28;20484;-53
2022/10/29 07:18:45;;;;;;;21.23;8.60;;;14.00;57.80;;;;;;5010277;28;20492;-51
2022/10/29 07:21:12;;;;;;;17.80;7.73;;;14.20;56.70;;;;;;5011765;28;20514;-52
2022/10/29 07:23:39;;;;;;;24.03;8.67;;;14.30;59.80;;;;;;5004539;28;20487;-53
2022/10/29 07:26:06;;;;;;;13.70;7.60;;;14.50;62.90;;;;;;5012657;28;20515;-53
2022/10/29 07:28:33;;;;;;;16.80;9.07;;;14.70;68.00;;;;;;5010584;28;20518;-53
2022/10/29 07:31:01;;;;;;;13.87;7.30;;;14.90;72.60;;;;;;5012664;28;20502;-54
2022/10/29 07:33:29;;;;;;;20.53;8.77;;;15.00;89.30;;;;;;5013436;28;20467;-52
2022/10/29 07:35:57;;;;;;;15.37;7.70;;;15.20;99.90;;;;;;5006602;28;20480;-53
2022/10/29 07:38:23;;;;;;;23.93;7.97;;;15.20;99.90;;;;;;5011573;28;20827;-53
2022/10/29 07:40:51;;;;;;;18.20;8.63;;;15.30;99.90;;;;;;5010348;28;20519;-52
2022/10/29 07:43:18;;;;;;;12.23;7.30;;;15.60;99.90;;;;;;5013085;28;20472;-52
2022/10/29 07:45:49;;;;;;;24.17;7.33;;;15.60;99.90;;;;;;5013625;28;20830;-53
2022/10/29 07:48:16;;;;;;;23.33;8.10;;;15.70;99.90;;;;;;5014009;28;20452;-52
2022/10/29 07:50:43;;;;;;;17.00;8.47;;;15.70;99.90;;;;;;5012837;28;20476;-52
2022/10/29 07:53:10;;;;;;;16.83;7.70;;;15.70;99.90;;;;;;5012765;28;20483;-51
2022/10/29 07:55:37;;;;;;;15.37;8.00;;;15.90;99.90;;;;;;5013479;28;20509;-52
2022/10/29 07:58:05;;;;;;;21.30;7.80;;;15.90;99.90;;;;;;5013661;28;20448;-53
2022/10/29 08:00:33;;;;;;;18.73;8.30;;;15.90;99.90;;;;;;5012554;28;20495;-52
2022/10/29 08:03:01;;;;;;;17.53;7.33;;;15.90;99.90;;;;;;5007554;28;20519;-53
2022/10/29 08:05:29;;;;;;;16.07;7.57;;;15.90;99.90;;;;;;5011758;28;20565;-53
2022/10/29 08:07:56;;;;;;;17.67;8.43;;;16.00;99.90;;;;;;5012453;28;20472;-52
2022/10/29 08:10:24;;;;;;;14.60;7.20;;;16.10;99.90;;;;;;5011184;28;20492;-53
2022/10/29 08:12:51;;;;;;;24.40;7.80;;;16.10;99.90;;;;;;5011015;28;20487;-51
2022/10/29 08:15:17;;;;;;;16.00;7.90;;;16.10;99.90;;;;;;5009046;28;20814;-52
2022/10/29 08:17:44;;;;;;;17.77;7.63;;;16.20;99.90;;;;;;5012543;28;20486;-51
2022/10/29 08:20:13;;;;;;;16.83;7.20;;;16.30;99.90;;;;;;5009918;28;20519;-52
2022/10/29 08:22:39;;;;;;;23.90;7.03;;;16.40;99.90;;;;;;5011214;28;20488;-53
2022/10/29 08:25:06;;;;;;;16.63;6.83;;;16.50;99.90;;;;;;5009744;28;20541;-53
2022/10/29 08:27:33;;;;;;;19.00;7.63;;;16.60;23.60;;;;;;5010953;28;20549;-52
2022/10/29 08:30:00;;;;;;;25.43;7.83;;;16.80;33.80;;;;;;5004347;28;20538;-52
2022/10/29 08:32:26;;;;;;;15.43;7.77;;;17.00;48.30;;;;;;5012131;28;20463;-52
2022/10/29 08:34:55;;;;;;;20.60;7.73;;;17.10;55.90;;;;;;5010251;28;20511;-53
2022/10/29 08:37:23;;;;;;;24.43;7.03;;;17.10;66.20;;;;;;5011302;28;20486;-53
2022/10/29 08:39:49;;;;;;;17.50;8.00;;;17.30;65.10;;;;;;5009978;28;20460;-53
2022/10/29 08:42:26;;;;;;;23.97;8.67;;;17.50;71.00;;;;;;5010991;28;20463;-54
2022/10/29 08:45:05;;;;;;;11.10;6.83;;;17.70;89.20;;;;;;5008690;28;20487;-53
2022/10/29 08:47:41;;;;;;;22.67;8.33;;;17.90;99.90;;;;;;5002921;28;20482;-51
2022/10/29 08:50:19;;;;;;;19.07;8.67;;;18.00;99.90;;;;;;5009942;28;20463;-53
2022/10/29 08:52:48;;;;;;;17.87;7.67;;;18.00;99.90;;;;;;5012686;28;20459;-52
2022/10/29 08:55:19;;;;;;;21.37;7.50;;;18.10;99.90;;;;;;5008439;28;20470;-52
2022/10/29 08:57:52;;;;;;;20.70;8.40;;;18.40;99.90;;;;;;5011723;28;20515;-53
2022/10/29 09:00:22;;;;;;;23.27;7.07;;;18.60;99.90;;;;;;5002263;28;20484;-52
2022/10/29 09:02:53;;;;;;;22.47;7.13;;;18.60;99.90;;;;;;5009866;28;20954;-53
2022/10/29 09:05:26;;;;;;;20.47;7.40;;;18.80;99.90;;;;;;5007827;28;20541;-53
2022/10/29 09:08:21;;;;;;;17.87;6.90;;;18.90;99.90;;;;;;5008074;28;20497;-53
2022/10/29 09:10:54;;;;;;;14.97;6.87;;;18.80;99.90;;;;;;5006721;28;20469;-52
2022/10/29 09:13:32;;;;;;;33.33;8.20;;;18.80;99.90;;;;;;5005448;28;20464;-53
2022/10/29 09:16:21;;;;;;;15.93;7.43;;;18.90;99.90;;;;;;5006339;28;20590;-52
2022/10/29 09:19:01;;;;;;;29.33;7.77;;;19.20;99.90;;;;;;5003701;28;20468;-52
2022/10/29 09:21:33;;;;;;;14.40;7.27;;;19.10;99.90;;;;;;5003544;28;20528;-52
2022/10/29 09:24:13;;;;;;;15.43;6.90;;;18.90;99.90;;;;;;5003189;28;20481;-52
2022/10/29 09:26:55;;;;;;;17.17;7.10;;;18.70;99.90;;;;;;5040074;23;20497;-49
2022/10/29 09:29:50;;;;;;;14.17;7.53;;;18.40;99.90;;;;;;5049596;28;20469;-49
2022/10/29 09:32:24;;;;;;;20.57;7.43;;;18.30;99.90;;;;;;5043418;28;20975;-49
2022/10/29 09:34:55;;;;;;;17.70;7.53;;;18.10;99.90;;;;;;5037262;28;20990;-49
2022/10/29 09:37:27;;;;;;;23.83;9.93;;;17.90;99.90;;;;;;5032889;28;20514;-49
2022/10/29 09:39:58;;;;;;;12.57;6.50;;;17.60;99.90;;;;;;5026785;28;20483;-49
2022/10/29 09:42:34;;;;;;;17.20;6.10;;;17.70;99.90;;;;;;5031535;28;20443;-49
2022/10/29 09:45:02;;;;;;;11.63;6.87;;;17.80;99.90;;;;;;5027896;28;20518;-49
2022/10/29 09:47:40;;;;;;;19.60;7.33;;;17.80;99.90;;;;;;5031199;28;21010;-49
2022/10/29 09:50:15;;;;;;;18.93;7.07;;;17.80;99.90;;;;;;5027796;28;20491;-49
2022/10/29 09:52:44;;;;;;;19.97;7.80;;;17.80;99.90;;;;;;5031042;28;20516;-49
2022/10/29 09:55:20;;;;;;;23.77;7.93;;;17.80;99.90;;;;;;5034584;28;20443;-48
2022/10/29 09:57:48;;;;;;;18.70;7.50;;;17.80;99.90;;;;;;5035104;28;20462;-48
2022/10/29 10:00:19;;;;;;;18.17;7.90;;;17.80;99.90;;;;;;5033759;28;20943;-49
2022/10/29 10:02:53;;;;;;;20.77;6.60;;;17.80;99.90;;;;;;5031903;28;20495;-49
2022/10/29 10:05:25;;;;;;;22.70;8.10;;;17.90;99.90;;;;;;5034285;28;20513;-49
2022/10/29 10:08:10;;;;;;;31.27;8.10;;;18.00;99.90;;;;;;5025153;28;20967;-48
2022/10/29 10:10:51;;;;;;;21.17;8.13;;;17.90;99.90;;;;;;5029608;28;20553;-49
2022/10/29 10:13:18;;;;;;;19.23;7.43;;;17.90;99.90;;;;;;5035866;28;20939;-48
2022/10/29 10:15:51;;;;;;;15.77;6.50;;;17.80;99.90;;;;;;5033834;28;20506;-49
2022/10/29 10:18:20;;;;;;;22.93;7.23;;;17.80;99.90;;;;;;5026621;28;20545;-48
2022/10/29 10:20:59;;;;;;;20.27;7.40;;;17.80;99.90;;;;;;5035373;28;20438;-49
2022/10/29 10:23:27;;;;;;;36.67;7.13;;;17.80;99.90;;;;;;5033503;28;20466;-49
2022/10/29 10:25:57;;;;;;;16.97;6.10;;;17.80;99.90;;;;;;5028138;28;20483;-49
2022/10/29 10:28:25;;;;;;;19.87;7.90;;;17.80;99.90;;;;;;5032495;28;21201;-51
2022/10/29 10:31:13;;;;;;;13.33;5.93;;;18.00;99.90;;;;;;5030421;28;20454;-49
2022/10/29 10:33:51;;;;;;;27.93;7.80;;;18.20;99.90;;;;;;5031592;28;20462;-48
2022/10/29 10:36:21;;;;;;;22.07;7.60;;;18.50;99.90;;;;;;5031701;28;20482;-48
2022/10/29 10:38:51;;;;;;;23.70;6.57;;;18.70;99.90;;;;;;5034211;28;20471;-48
2022/10/29 10:41:25;;;;;;;17.43;6.97;;;18.90;99.90;;;;;;5032971;28;20839;-48
2022/10/29 10:43:55;;;;;;;16.40;6.67;;;18.90;99.90;;;;;;5030583;28;20473;-49
2022/10/29 10:46:24;;;;;;;28.73;7.10;;;19.00;99.90;;;;;;5032187;28;20914;-49
2022/10/29 10:48:59;;;;;;;20.13;7.60;;;18.90;99.90;;;;;;5031569;28;20449;-49
2022/10/29 10:51:29;;;;;;;16.90;6.27;;;18.80;99.90;;;;;;5028709;28;20485;-49
2022/10/29 10:53:56;;;;;;;20.17;6.63;;;19.00;99.90;;;;;;5032967;28;20508;-48
2022/10/29 10:56:24;;;;;;;22.07;8.03;;;18.90;99.90;;;;;;5033902;28;20514;-49
2022/10/29 10:58:58;;;;;;;21.43;6.67;;;19.00;99.90;;;;;;5034988;28;20528;-49
2022/10/29 11:01:31;;;;;;;19.27;7.33;;;19.10;99.90;;;;;;5031604;28;20872;-49
2022/10/29 11:04:04;;;;;;;22.07;8.03;;;19.10;99.90;;;;;;5027262;28;20510;-49
2022/10/29 11:06:35;;;;;;;23.50;7.00;;;19.10;99.90;;;;;;5031704;28;20500;-48
2022/10/29 11:09:08;;;;;;;18.90;7.87;;;19.00;99.90;;;;;;5035193;28;20467;-49
2022/10/29 11:11:40;;;;;;;19.63;7.27;;;19.50;99.90;;;;;;5033392;28;20572;-48
2022/10/29 11:14:14;;;;;;;20.30;7.77;;;19.40;99.90;;;;;;5033729;28;20466;-49
2022/10/29 11:16:45;;;;;;;14.10;7.73;;;19.40;99.90;;;;;;5028161;28;20489;-49
2022/10/29 11:19:20;;;;;;;15.60;7.27;;;19.70;99.90;;;;;;5030169;28;20462;-49
2022/10/29 11:21:56;;;;;;;15.20;6.77;;;19.90;99.90;;;;;;5032173;28;20512;-49
2022/10/29 11:24:30;;;;;;;19.33;6.53;;;19.60;99.90;;;;;;5025443;28;20497;-49
2022/10/29 11:27:02;;;;;;;15.40;6.17;;;19.70;99.90;;;;;;5032388;28;20543;-48
2022/10/29 11:29:36;;;;;;;31.97;7.93;;;19.80;99.90;;;;;;5025545;28;21090;-49
2022/10/29 11:32:12;;;;;;;15.87;6.07;;;19.80;99.90;;;;;;5027602;28;20485;-48
2022/10/29 11:34:49;;;;;;;24.83;8.47;;;19.90;99.90;;;;;;5030397;28;20525;-48
2022/10/29 11:37:22;;;;;;;26.70;9.50;;;19.90;99.90;;;;;;5025292;28;20494;-49
2022/10/29 11:39:54;;;;;;;16.63;6.63;;;19.90;99.90;;;;;;5034349;28;20470;-49
2022/10/29 11:42:22;;;;;;;21.40;6.87;;;20.00;99.90;;;;;;5034234;28;20529;-49
2022/10/29 11:44:49;;;;;;;17.80;7.77;;;19.90;99.90;;;;;;5032188;28;20514;-48
2022/10/29 11:47:29;;;;;;;18.40;8.00;;;19.90;99.90;;;;;;5027418;28;20498;-49
2022/10/29 11:50:11;;;;;;;19.90;6.60;;;19.70;99.90;;;;;;5034266;28;20453;-49
2022/10/29 11:52:44;;;;;;;14.60;6.53;;;20.10;99.90;;;;;;5033717;28;20944;-49
2022/10/29 11:55:23;;;;;;;24.27;6.80;;;20.20;99.90;;;;;;5033219;28;20952;-48
2022/10/29 11:57:55;;;;;;;11.97;6.50;;;20.10;99.90;;;;;;5033693;28;20546;-49
2022/10/29 12:00:23;;;;;;;18.13;7.33;;;19.90;99.90;;;;;;5031500;28;20540;-49
2022/10/29 12:03:10;;;;;;;19.90;6.73;;;19.60;99.90;;;;;;5032093;28;20462;-49
2022/10/29 12:05:43;;;;;;;22.30;8.70;;;19.80;99.90;;;;;;5026614;28;20542;-49
2022/10/29 12:08:25;;;;;;;10.73;5.97;;;19.70;99.90;;;;;;5033562;28;20451;-49
2022/10/29 12:10:57;;;;;;;19.47;7.33;;;19.80;99.90;;;;;;5033333;28;21029;-49
2022/10/29 12:13:39;;;;;;;19.20;6.70;;;19.80;99.90;;;;;;5033883;28;20505;-48
2022/10/29 12:16:23;;;;;;;13.40;7.17;;;19.60;99.90;;;;;;5029401;28;21048;-50
2022/10/29 12:18:55;;;;;;;17.90;7.07;;;19.60;99.90;;;;;;5023344;28;20949;-49
2022/10/29 12:21:30;;;;;;;12.60;6.10;;;19.50;99.90;;;;;;5013628;28;20553;-50
2022/10/29 12:24:10;;;;;;;18.17;6.93;;;19.50;99.90;;;;;;5023056;28;20806;-49
2022/10/29 12:26:42;;;;;;;32.90;7.77;;;19.50;99.90;;;;;;5026921;28;20506;-49
2022/10/29 12:29:19;;;;;;;10.23;7.00;;;19.70;99.90;;;;;;5032385;28;20491;-49
2022/10/29 12:31:54;;;;;;;12.63;6.53;;;19.70;99.90;;;;;;5031886;28;21034;-49
2022/10/29 12:34:28;;;;;;;14.23;6.50;;;19.70;99.90;;;;;;5016774;28;20817;-49
2022/10/29 12:37:04;;;;;;;18.53;6.13;;;20.00;99.90;;;;;;5028815;28;20482;-49
2022/10/29 12:39:38;;;;;;;24.63;7.07;;;20.30;99.90;;;;;;5031363;28;20490;-49
2022/10/29 12:42:12;;;;;;;12.53;7.13;;;20.30;99.90;;;;;;5032840;28;20474;-49
2022/10/29 12:44:48;;;;;;;14.83;7.10;;;20.30;99.90;;;;;;5033057;28;20541;-48
2022/10/29 12:47:20;;;;;;;25.57;7.70;;;20.90;99.90;;;;;;5032597;28;20509;-49
2022/10/29 12:49:59;;;;;;;21.10;7.93;;;20.70;99.90;;;;;;5031055;28;20516;-49
2022/10/29 12:52:32;;;;;;;15.03;7.33;;;20.50;99.90;;;;;;5029871;28;20462;-48